Time;durP1;ratioP1;P1;durP2;ratioP2;P2;SDS_P1;SDS_P2;PMS_P1;PMS_P2;Temp;Humidity;BMP_temperature;BMP_pressure;BME280_temperature;BME280_humidity;BME280_pressure;Samples;Min_cycle;Max_cycle;Signal;HPM_P1;HPM_P2
2022/10/30 00:00:13;;;;;;;14.00;7.10;;;;;;;14.43;100.00;101680.56;5054932;28;20271;-35
2022/10/30 00:02:39;;;;;;;13.65;7.07;;;;;;;14.53;100.00;101680.84;5055244;28;20053;-35
2022/10/30 00:05:05;;;;;;;11.63;7.00;;;;;;;14.36;100.00;101672.53;5055034;28;20028;-36
2022/10/30 00:07:30;;;;;;;;;;;;;;;14.51;99.81;101672.09;5056206;28;20496;-35
2022/10/30 00:09:55;;;;;;;12.90;6.67;;;;;;;14.34;99.74;101682.81;5054638;28;19912;-35
2022/10/30 00:12:21;;;;;;;11.77;5.90;;;;;;;14.30;100.00;101683.53;5053813;28;20273;-35
2022/10/30 00:14:46;;;;;;;13.45;6.65;;;;;;;14.17;100.00;101668.28;5055383;28;20052;-35
2022/10/30 00:17:11;;;;;;;12.03;6.97;;;;;;;14.14;100.00;101666.84;5055363;28;20432;-35
2022/10/30 00:19:37;;;;;;;11.50;6.35;;;;;;;14.23;100.00;101682.81;5054650;28;20465;-35
2022/10/30 00:22:03;;;;;;;13.90;6.70;;;;;;;14.21;100.00;101687.69;5054601;28;20499;-35
2022/10/30 00:24:28;;;;;;;10.60;5.90;;;;;;;14.09;100.00;101680.31;5054966;28;20277;-35
2022/10/30 00:26:54;;;;;;;11.50;6.18;;;;;;;14.07;100.00;101687.06;5054410;28;20029;-35
2022/10/30 00:29:19;;;;;;;14.70;7.03;;;;;;;14.02;100.00;101681.50;5054656;28;20029;-36
2022/10/30 00:31:44;;;;;;;14.77;6.75;;;;;;;14.00;100.00;101678.16;5054796;28;20024;-35
2022/10/30 00:34:10;;;;;;;10.88;7.07;;;;;;;14.00;100.00;101670.81;5054599;28;20029;-35
2022/10/30 00:36:35;;;;;;;13.10;7.00;;;;;;;14.01;100.00;101677.94;5054715;28;20067;-35
2022/10/30 00:39:00;;;;;;;9.45;6.55;;;;;;;13.90;100.00;101674.13;5054488;28;20426;-35
2022/10/30 00:41:26;;;;;;;14.57;7.07;;;;;;;13.92;100.00;101671.19;5053998;28;20520;-35
2022/10/30 00:43:52;;;;;;;11.52;6.72;;;;;;;13.93;100.00;101669.28;5054666;28;20596;-35
2022/10/30 00:46:29;;;;;;;15.02;7.20;;;;;;;13.80;100.00;101654.00;5054478;28;20059;-35
2022/10/30 00:48:59;;;;;;;13.65;6.93;;;;;;;13.80;100.00;101662.97;5054956;28;20042;-35
2022/10/30 00:51:26;;;;;;;14.15;7.28;;;;;;;13.67;100.00;101644.19;5054474;28;20103;-35
2022/10/30 00:53:53;;;;;;;14.90;6.53;;;;;;;13.76;100.00;101669.97;5053974;28;20428;-35
2022/10/30 00:56:22;;;;;;;13.70;6.25;;;;;;;13.79;100.00;101668.66;5054139;28;20037;-35
2022/10/30 00:58:52;;;;;;;9.70;6.13;;;;;;;13.81;100.00;101658.38;5054783;28;20074;-35
2022/10/30 01:01:25;;;;;;;11.85;6.68;;;;;;;13.81;100.00;101671.97;5065984;28;20542;-35
2022/10/30 01:03:56;;;;;;;12.05;6.50;;;;;;;13.82;100.00;101671.75;5073281;28;20082;-44
2022/10/30 01:06:23;;;;;;;11.25;5.97;;;;;;;13.75;100.00;101665.56;5073969;28;20123;-35
2022/10/30 01:08:49;;;;;;;17.00;6.43;;;;;;;13.82;100.00;101674.47;5073249;28;20350;-35
2022/10/30 01:11:15;;;;;;;13.57;6.80;;;;;;;13.77;100.00;101676.22;5073768;28;20043;-35
2022/10/30 01:13:43;;;;;;;16.37;6.17;;;;;;;13.71;100.00;101671.69;5074120;28;20028;-35
2022/10/30 01:16:20;;;;;;;17.55;6.72;;;;;;;13.81;100.00;101678.25;5073893;28;20032;-35
2022/10/30 01:18:55;;;;;;;11.38;6.30;;;;;;;13.70;100.00;101676.31;5073747;28;20033;-35
2022/10/30 01:21:32;;;;;;;11.57;6.72;;;;;;;13.69;100.00;101680.09;5073387;28;20396;-35
2022/10/30 01:24:16;;;;;;;13.15;6.47;;;;;;;13.68;100.00;101667.56;5073307;28;20514;-35
2022/10/30 01:26:44;;;;;;;10.00;5.95;;;;;;;13.62;100.00;101676.66;5073436;28;20107;-35
2022/10/30 01:29:44;;;;;;;10.68;6.22;;;;;;;13.69;100.00;101671.13;5073465;28;20492;-35
2022/10/30 01:32:37;;;;;;;9.68;6.45;;;;;;;13.62;100.00;101676.66;5074056;28;20123;-36
2022/10/30 01:35:07;;;;;;;13.38;6.35;;;;;;;13.49;100.00;101669.50;5073196;28;20020;-35
2022/10/30 01:37:41;;;;;;;12.98;7.22;;;;;;;13.48;100.00;101670.56;5073379;28;20032;-35
2022/10/30 01:40:13;;;;;;;12.07;6.05;;;;;;;13.45;100.00;101673.75;5073404;28;20070;-35
2022/10/30 01:42:44;;;;;;;13.05;6.72;;;;;;;13.50;100.00;101683.91;5073277;28;20032;-35
2022/10/30 01:45:23;;;;;;;13.30;6.53;;;;;;;13.51;100.00;101675.53;5073824;28;20372;-35
2022/10/30 01:48:03;;;;;;;15.07;7.03;;;;;;;13.44;100.00;101688.38;5073694;28;20112;-35
2022/10/30 01:50:56;;;;;;;12.43;6.70;;;;;;;13.39;100.00;101680.09;5073101;28;20025;-35
2022/10/30 01:53:57;;;;;;;13.40;6.20;;;;;;;13.45;100.00;101684.59;5050376;28;20623;-35
2022/10/30 01:56:32;;;;;;;13.15;6.95;;;;;;;13.40;100.00;101669.00;5050926;28;20167;-35
2022/10/30 01:59:04;;;;;;;13.23;6.30;;;;;;;13.36;100.00;101683.25;5051110;28;20041;-35
2022/10/30 02:01:33;;;;;;;9.57;5.65;;;;;;;13.35;100.00;101678.88;5050598;28;20029;-35
2022/10/30 02:03:59;;;;;;;11.32;6.65;;;;;;;13.34;100.00;101685.38;5050710;28;20466;-35
2022/10/30 02:06:25;;;;;;;12.30;6.20;;;;;;;13.32;100.00;101684.78;5050503;28;20144;-35
2022/10/30 02:08:53;;;;;;;15.57;6.97;;;;;;;13.30;100.00;101684.19;5051008;28;20037;-35
2022/10/30 02:11:20;;;;;;;11.65;6.50;;;;;;;13.28;100.00;101691.75;5050579;28;20049;-35
2022/10/30 02:13:45;;;;;;;12.18;5.95;;;;;;;13.25;100.00;101689.47;5050720;28;20060;-35
2022/10/30 02:16:10;;;;;;;15.60;6.60;;;;;;;13.22;100.00;101692.63;5050929;28;20503;-35
2022/10/30 02:18:36;;;;;;;11.63;6.03;;;;;;;13.09;100.00;101682.75;5051162;28;20049;-35
2022/10/30 02:21:01;;;;;;;18.42;7.50;;;;;;;13.15;100.00;101684.53;5050361;28;20060;-35
2022/10/30 02:23:26;;;;;;;13.35;6.65;;;;;;;13.17;100.00;101674.28;5050382;28;20041;-35
2022/10/30 02:25:52;;;;;;;12.60;6.53;;;;;;;13.14;100.00;101682.91;5050236;28;20052;-35
2022/10/30 02:28:17;;;;;;;14.53;6.87;;;;;;;13.09;100.00;101685.47;5050416;28;20198;-35
2022/10/30 02:30:43;;;;;;;11.70;6.55;;;;;;;13.14;100.00;101693.75;5064055;28;20079;-35
2022/10/30 02:33:08;;;;;;;14.90;6.60;;;;;;;13.02;100.00;101684.69;5073057;28;20052;-35
2022/10/30 02:35:34;;;;;;;15.15;7.40;;;;;;;13.04;100.00;101691.56;5072439;28;20063;-35
2022/10/30 02:37:59;;;;;;;15.27;6.72;;;;;;;13.04;100.00;101696.19;5073468;28;20032;-35
2022/10/30 02:40:25;;;;;;;11.77;6.80;;;;;;;13.02;100.00;101700.97;5073147;28;20032;-35
2022/10/30 02:42:52;;;;;;;14.13;6.47;;;;;;;13.07;100.00;101699.25;5073190;28;20036;-35
2022/10/30 02:45:17;;;;;;;11.90;6.70;;;;;;;13.03;100.00;101699.94;5072481;28;20324;-35
2022/10/30 02:47:42;;;;;;;9.02;6.63;;;;;;;12.96;100.00;101689.16;5072860;28;20028;-35
2022/10/30 02:50:08;;;;;;;9.43;6.07;;;;;;;12.97;100.00;101692.69;5072852;28;20169;-35
2022/10/30 02:52:33;;;;;;;13.85;6.57;;;;;;;12.99;100.00;101702.28;5072491;28;20025;-35
2022/10/30 02:54:59;;;;;;;9.77;6.20;;;;;;;12.99;100.00;101688.72;5072239;28;20033;-35
2022/10/30 02:57:24;;;;;;;14.93;7.30;;;;;;;12.91;100.00;101697.16;5072946;28;20300;-35
2022/10/30 02:59:49;;;;;;;11.43;6.57;;;;;;;12.84;100.00;101690.97;5072230;28;20037;-35
2022/10/30 03:02:15;;;;;;;12.90;6.87;;;;;;;12.89;100.00;101699.25;5072368;28;20472;-35
2022/10/30 03:04:40;;;;;;;11.73;6.60;;;;;;;12.89;100.00;101699.25;5076121;28;20627;-35
2022/10/30 03:07:05;;;;;;;11.90;6.37;;;;;;;12.90;100.00;101703.63;5076637;28;20139;-35
2022/10/30 03:09:30;;;;;;;11.03;6.73;;;;;;;12.87;100.00;101698.66;5075919;28;20275;-35
2022/10/30 03:11:56;;;;;;;10.53;6.03;;;;;;;12.78;100.00;101694.56;5076510;28;20060;-35
2022/10/30 03:14:21;;;;;;;12.87;5.87;;;;;;;12.75;100.00;101692.31;5076086;28;20029;-35
2022/10/30 03:16:46;;;;;;;12.88;6.13;;;;;;;12.76;100.00;101688.53;5076754;28;20051;-35
2022/10/30 03:19:12;;;;;;;14.87;6.53;;;;;;;12.67;100.00;101703.47;5076318;28;20028;-35
2022/10/30 03:21:37;;;;;;;9.20;5.90;;;;;;;12.74;100.00;101690.66;5076176;28;20783;-35
2022/10/30 03:24:03;;;;;;;9.47;6.33;;;;;;;12.71;100.00;101680.25;5075982;28;20052;-35
2022/10/30 03:26:28;;;;;;;12.15;6.18;;;;;;;12.69;100.00;101682.34;5075767;28;20028;-35
2022/10/30 03:28:54;;;;;;;11.23;6.18;;;;;;;12.67;100.00;101671.72;5076130;28;20037;-35
2022/10/30 03:31:19;;;;;;;12.87;6.53;;;;;;;12.72;100.00;101690.03;5075890;28;20033;-35
2022/10/30 03:33:45;;;;;;;14.20;6.80;;;;;;;12.63;100.00;101673.22;5076153;28;20266;-35
2022/10/30 03:36:12;;;;;;;17.65;6.97;;;;;;;12.69;100.00;101688.63;5075447;28;20090;-35
2022/10/30 03:38:38;;;;;;;11.13;6.05;;;;;;;12.62;100.00;101671.56;5076412;28;20032;-35
2022/10/30 03:41:04;;;;;;;10.50;6.47;;;;;;;12.69;100.00;101691.34;5075611;28;20036;-35
2022/10/30 03:43:30;;;;;;;15.85;7.07;;;;;;;12.69;100.00;101695.91;5075840;28;20039;-35
2022/10/30 03:45:56;;;;;;;9.82;6.57;;;;;;;12.67;100.00;101687.16;5075218;28;20028;-35
2022/10/30 03:48:24;;;;;;;10.93;5.93;;;;;;;12.66;100.00;101690.94;5074676;28;20039;-35
2022/10/30 03:50:52;;;;;;;12.95;6.55;;;;;;;12.54;100.00;101671.84;5075208;28;20357;-35
2022/10/30 03:53:17;;;;;;;12.30;6.75;;;;;;;12.63;100.00;101698.47;5075787;28;20452;-35
2022/10/30 03:55:42;;;;;;;11.50;7.23;;;;;;;12.62;100.00;101707.66;5075157;28;20062;-35
2022/10/30 03:58:08;;;;;;;12.07;6.67;;;;;;;12.61;100.00;101705.19;5075639;28;20029;-35
2022/10/30 04:00:34;;;;;;;8.47;5.63;;;;;;;12.66;100.00;101708.06;5075235;28;20353;-35
2022/10/30 04:03:00;;;;;;;12.77;7.25;;;;;;;12.62;100.00;101709.56;5075335;28;20039;-35
2022/10/30 04:05:26;;;;;;;10.15;6.40;;;;;;;12.69;100.00;101713.03;5075045;28;20024;-35
2022/10/30 04:08:00;;;;;;;11.00;6.65;;;;;;;12.66;100.00;101707.22;5075981;28;20060;-35
2022/10/30 04:10:26;;;;;;;12.95;6.65;;;;;;;12.53;100.00;101706.28;5075637;28;20343;-35
2022/10/30 04:12:53;;;;;;;;;;;;;;;12.71;100.00;101715.53;5075992;28;20032;-35
2022/10/30 04:15:19;;;;;;;10.48;5.85;;;;;;;12.58;100.00;101714.59;5073896;28;19919;-35
2022/10/30 04:17:49;;;;;;;12.73;7.03;;;;;;;12.58;100.00;101717.28;5074938;28;20385;-35
2022/10/30 04:20:14;;;;;;;11.40;6.40;;;;;;;12.56;100.00;101703.13;5075164;28;20393;-35
2022/10/30 04:22:40;;;;;;;10.05;6.40;;;;;;;12.53;100.00;101703.56;5075010;28;20035;-35
2022/10/30 04:25:05;;;;;;;14.07;6.73;;;;;;;12.43;100.00;101703.25;5075057;28;20588;-35
2022/10/30 04:27:31;;;;;;;12.32;6.10;;;;;;;12.52;100.00;101701.91;5075091;28;20041;-35
2022/10/30 04:29:56;;;;;;;12.20;6.77;;;;;;;12.44;100.00;101704.06;5074501;28;20086;-35
2022/10/30 04:32:21;;;;;;;19.73;6.90;;;;;;;12.38;100.00;101703.09;5074950;28;20024;-35
2022/10/30 04:34:47;;;;;;;11.00;6.27;;;;;;;12.36;100.00;101703.31;5074715;28;20064;-35
2022/10/30 04:37:12;;;;;;;15.57;6.53;;;;;;;12.42;100.00;101704.31;5075386;28;20032;-35
2022/10/30 04:39:37;;;;;;;13.30;6.63;;;;;;;12.35;100.00;101706.25;5074721;28;20283;-35
2022/10/30 04:42:03;;;;;;;11.98;7.05;;;;;;;12.35;100.00;101700.84;5074161;28;20231;-35
2022/10/30 04:44:28;;;;;;;13.95;6.72;;;;;;;12.32;100.00;101693.97;5074348;28;20024;-35
2022/10/30 04:46:53;;;;;;;12.43;6.50;;;;;;;12.38;100.00;101684.94;5075342;28;20055;-35
2022/10/30 04:49:19;;;;;;;8.70;5.27;;;;;;;12.40;100.00;101676.59;5074906;28;20054;-35
2022/10/30 04:51:46;;;;;;;11.87;6.53;;;;;;;12.44;100.00;101672.34;5074498;28;20029;-35
2022/10/30 04:54:11;;;;;;;12.23;6.63;;;;;;;12.39;100.00;101672.19;5074485;28;20251;-35
2022/10/30 04:56:37;;;;;;;11.00;6.07;;;;;;;12.47;100.00;101671.09;5074179;28;20427;-35
2022/10/30 04:59:03;;;;;;;11.00;6.53;;;;;;;12.48;100.00;101675.47;5074231;28;20841;-35
2022/10/30 05:01:29;;;;;;;12.13;6.50;;;;;;;12.43;100.00;101686.97;5074314;28;20270;-35
2022/10/30 05:03:57;;;;;;;9.85;5.95;;;;;;;12.41;100.00;101677.41;5074527;28;20495;-34
2022/10/30 05:06:29;;;;;;;12.43;6.47;;;;;;;12.42;100.00;101677.19;5073914;28;20056;-35
2022/10/30 05:08:56;;;;;;;17.10;7.03;;;;;;;12.41;100.00;101651.13;5074763;28;20060;-35
2022/10/30 05:11:21;;;;;;;12.32;6.78;;;;;;;12.40;100.00;101668.44;5073527;28;20028;-35
2022/10/30 05:13:47;;;;;;;11.87;6.47;;;;;;;12.42;100.00;101679.91;5073833;28;20034;-35
2022/10/30 05:16:12;;;;;;;12.68;6.10;;;;;;;12.41;100.00;101685.56;5073468;28;20378;-35
2022/10/30 05:18:38;;;;;;;12.93;6.50;;;;;;;12.32;100.00;101666.00;5073765;28;20035;-35
2022/10/30 05:21:03;;;;;;;12.43;6.70;;;;;;;12.37;100.00;101685.16;5073376;28;20052;-35
2022/10/30 05:23:29;;;;;;;12.23;6.57;;;;;;;12.31;100.00;101677.91;5074483;28;20020;-35
2022/10/30 05:25:54;;;;;;;11.47;6.57;;;;;;;12.32;100.00;101685.00;5073559;28;20095;-35
2022/10/30 05:28:19;;;;;;;12.80;7.07;;;;;;;12.37;100.00;101693.28;5073422;28;20480;-35
2022/10/30 05:30:44;;;;;;;14.03;7.20;;;;;;;12.32;100.00;101685.81;5073228;28;20350;-35
2022/10/30 05:33:11;;;;;;;11.93;6.33;;;;;;;12.25;100.00;101695.06;5073526;28;20127;-35
2022/10/30 05:35:37;;;;;;;13.70;6.57;;;;;;;12.10;100.00;101703.50;5073472;28;20094;-35
2022/10/30 05:38:04;;;;;;;10.23;7.25;;;;;;;12.14;100.00;101701.19;5073182;28;20033;-35
2022/10/30 05:40:31;;;;;;;8.68;6.22;;;;;;;12.05;100.00;101687.94;5073329;28;20036;-35
2022/10/30 05:42:56;;;;;;;;;;;;;;;12.23;100.00;101697.16;5074281;28;20029;-35
2022/10/30 05:45:21;;;;;;;14.45;6.57;;;;;;;12.07;100.00;101699.38;5073199;28;19915;-35
2022/10/30 05:48:01;;;;;;;13.35;6.50;;;;;;;12.06;100.00;101699.59;5073328;28;20377;-35
2022/10/30 05:50:27;;;;;;;12.70;6.32;;;;;;;12.06;100.00;101689.59;5073186;28;20035;-35
2022/10/30 05:52:57;;;;;;;11.48;7.15;;;;;;;11.99;100.00;101691.50;5073480;28;20028;-35
2022/10/30 05:55:23;;;;;;;13.07;6.65;;;;;;;11.89;100.00;101680.31;5072111;28;20020;-35
2022/10/30 05:57:48;;;;;;;12.05;6.32;;;;;;;11.83;100.00;101682.03;5073659;28;20051;-35
2022/10/30 06:00:14;;;;;;;15.83;7.80;;;;;;;11.83;100.00;101676.63;5073116;28;20399;-35
2022/10/30 06:02:39;;;;;;;10.32;6.60;;;;;;;11.87;100.00;101689.75;5072943;28;20027;-35
2022/10/30 06:05:05;;;;;;;12.73;7.07;;;;;;;11.88;100.00;101694.94;5073501;28;20033;-35
2022/10/30 06:07:30;;;;;;;10.82;6.43;;;;;;;11.79;100.00;101685.38;5073833;28;20205;-35
2022/10/30 06:09:55;;;;;;;11.17;6.53;;;;;;;11.83;100.00;101692.03;5072663;28;20069;-35
2022/10/30 06:12:21;;;;;;;10.97;6.50;;;;;;;11.75;100.00;101684.97;5073011;28;20142;-35
2022/10/30 06:14:46;;;;;;;12.87;7.47;;;;;;;11.65;100.00;101683.78;5072632;28;20120;-35
2022/10/30 06:17:11;;;;;;;16.83;10.07;;;;;;;11.69;100.00;101698.56;5072614;28;20119;-35
2022/10/30 06:19:37;;;;;;;16.33;13.03;;;;;;;11.59;100.00;101697.16;5072811;28;20115;-35
2022/10/30 06:22:02;;;;;;;16.37;11.20;;;;;;;11.64;100.00;101703.81;5073054;28;20255;-35
2022/10/30 06:24:27;;;;;;;16.00;9.77;;;;;;;11.60;100.00;101689.84;5072666;28;20079;-35
2022/10/30 06:26:52;;;;;;;16.17;9.73;;;;;;;11.57;100.00;101693.84;5072693;28;20051;-35
2022/10/30 06:29:18;;;;;;;13.77;9.03;;;;;;;11.62;100.00;101689.66;5073290;28;20036;-35
2022/10/30 06:31:43;;;;;;;18.20;10.83;;;;;;;11.60;100.00;101682.56;5072928;28;20040;-35
2022/10/30 06:34:08;;;;;;;19.43;12.87;;;;;;;11.65;100.00;101683.78;5072707;28;20125;-35
2022/10/30 06:36:34;;;;;;;16.80;10.43;;;;;;;11.59;100.00;101682.78;5072670;28;20077;-35
2022/10/30 06:38:59;;;;;;;17.33;10.70;;;;;;;11.53;100.00;101676.34;5075612;28;20128;-35
2022/10/30 06:41:24;;;;;;;12.63;9.63;;;;;;;11.41;100.00;101653.69;5077456;28;20108;-35
2022/10/30 06:43:49;;;;;;;13.10;9.20;;;;;;;11.60;100.00;101681.72;5077031;28;20032;-35
2022/10/30 06:46:15;;;;;;;16.57;9.07;;;;;;;11.51;100.00;101685.72;5076624;28;20612;-35
2022/10/30 06:48:40;;;;;;;15.43;8.03;;;;;;;11.48;100.00;101680.78;5076634;28;20047;-35
2022/10/30 06:51:05;;;;;;;13.80;8.40;;;;;;;11.50;100.00;101693.03;5076508;28;20103;-35
2022/10/30 06:53:31;;;;;;;13.48;8.15;;;;;;;11.52;100.00;101693.66;5077011;28;20031;-35
2022/10/30 06:56:01;;;;;;;15.87;8.73;;;;;;;11.40;100.00;101683.72;5076211;28;20444;-35
2022/10/30 06:58:28;;;;;;;15.75;8.27;;;;;;;11.52;100.00;101690.97;5076474;28;20025;-35
2022/10/30 07:00:53;;;;;;;12.75;7.78;;;;;;;11.53;100.00;101684.47;5076589;28;20064;-35
2022/10/30 07:03:19;;;;;;;13.35;8.40;;;;;;;11.53;100.00;101679.06;5076902;28;20033;-35
2022/10/30 07:05:45;;;;;;;13.52;8.02;;;;;;;11.53;100.00;101681.78;5075784;28;20063;-35
2022/10/30 07:08:11;;;;;;;12.27;7.70;;;;;;;11.56;100.00;101678.63;5076735;28;20029;-35
2022/10/30 07:10:36;;;;;;;11.18;7.95;;;;;;;11.62;100.00;101670.69;5076239;28;20036;-35
2022/10/30 07:13:01;;;;;;;15.07;8.23;;;;;;;11.63;100.00;101672.34;5076480;28;20112;-35
2022/10/30 07:15:27;;;;;;;12.93;8.37;;;;;;;11.70;100.00;101682.09;5076786;28;20449;-35
2022/10/30 07:17:53;;;;;;;13.05;8.35;;;;;;;11.70;100.00;101678.53;5076362;28;20051;-35
2022/10/30 07:20:18;;;;;;;;;;;;;;;11.84;100.00;101677.44;5076443;28;20032;-36
2022/10/30 07:22:44;;;;;;;11.82;6.82;;;;;;;11.85;100.00;101679.09;5076424;28;20049;-35
2022/10/30 07:25:09;;;;;;;11.30;7.45;;;;;;;11.70;100.00;101665.00;5076222;28;20028;-35
2022/10/30 07:27:44;;;;;;;16.20;8.23;;;;;;;11.71;100.00;101664.81;5076186;28;20123;-35
2022/10/30 07:30:15;;;;;;;12.57;7.60;;;;;;;11.90;100.00;101681.97;5076170;28;20035;-35
2022/10/30 07:32:41;;;;;;;12.90;7.93;;;;;;;11.85;100.00;101684.50;5076031;28;20105;-35
2022/10/30 07:35:08;;;;;;;10.43;7.85;;;;;;;11.90;100.00;101681.16;5075728;28;20384;-35
2022/10/30 07:37:33;;;;;;;12.95;7.93;;;;;;;11.97;100.00;101676.53;5076440;28;20037;-35
2022/10/30 07:39:59;;;;;;;12.90;7.82;;;;;;;11.91;100.00;101682.81;5075697;28;20539;-35
2022/10/30 07:42:24;;;;;;;9.57;6.63;;;;;;;12.08;100.00;101683.94;5075474;28;20115;-35
2022/10/30 07:44:49;;;;;;;9.50;7.27;;;;;;;12.03;100.00;101681.88;5075644;28;20032;-35
2022/10/30 07:47:15;;;;;;;9.87;6.70;;;;;;;12.14;100.00;101677.63;5076166;28;20370;-35
2022/10/30 07:49:40;;;;;;;11.60;7.03;;;;;;;12.13;100.00;101669.72;5076077;28;20035;-35
2022/10/30 07:52:05;;;;;;;12.30;7.50;;;;;;;12.30;100.00;101668.13;5076005;28;20059;-35
2022/10/30 07:54:31;;;;;;;10.77;6.40;;;;;;;12.41;100.00;101670.09;5075470;28;20036;-35
2022/10/30 07:56:57;;;;;;;12.38;7.90;;;;;;;12.47;100.00;101669.19;5075649;28;20020;-35
2022/10/30 07:59:23;;;;;;;18.52;8.85;;;;;;;12.46;100.00;101675.69;5075649;28;20038;-35
2022/10/30 08:01:48;;;;;;;12.23;8.60;;;;;;;12.60;100.00;101676.41;5075273;28;20028;-35
2022/10/30 08:04:14;;;;;;;13.67;9.10;;;;;;;12.70;100.00;101670.44;5075298;28;20036;-35
2022/10/30 08:06:39;;;;;;;13.43;8.93;;;;;;;12.77;100.00;101682.06;5075443;28;20048;-35
2022/10/30 08:09:05;;;;;;;17.20;9.00;;;;;;;12.87;100.00;101671.50;5074837;28;20045;-35
2022/10/30 08:11:31;;;;;;;13.43;9.03;;;;;;;12.92;100.00;101666.22;5075912;28;20082;-35
2022/10/30 08:13:56;;;;;;;15.73;8.60;;;;;;;13.00;100.00;101665.94;5074878;28;20282;-35
2022/10/30 08:16:22;;;;;;;13.90;7.53;;;;;;;13.08;100.00;101662.91;5074814;28;20028;-36
2022/10/30 08:18:47;;;;;;;15.47;8.63;;;;;;;13.12;100.00;101652.41;5075727;28;20450;-35
2022/10/30 08:21:12;;;;;;;10.83;8.37;;;;;;;13.21;100.00;101652.94;5074979;28;20270;-35
2022/10/30 08:23:38;;;;;;;12.47;8.10;;;;;;;13.22;100.00;101649.19;5075708;28;20764;-35
2022/10/30 08:26:04;;;;;;;13.35;8.25;;;;;;;13.33;100.00;101653.84;5075239;28;20029;-35
2022/10/30 08:28:29;;;;;;;;;;;;;;;13.40;100.00;101654.59;5073994;28;20024;-35
2022/10/30 08:30:55;;;;;;;14.35;8.35;;;;;;;13.44;100.00;101666.66;5075470;28;19909;-35
2022/10/30 08:33:20;;;;;;;15.10;7.73;;;;;;;13.52;100.00;101676.38;5074896;28;20389;-35
2022/10/30 08:35:47;;;;;;;12.40;7.80;;;;;;;13.61;100.00;101672.25;5074383;28;20707;-35
2022/10/30 08:38:12;;;;;;;12.07;7.38;;;;;;;13.63;100.00;101672.88;5074399;28;20289;-35
2022/10/30 08:40:38;;;;;;;13.23;7.47;;;;;;;13.73;100.00;101672.31;5075395;28;20033;-35
2022/10/30 08:43:03;;;;;;;12.90;7.47;;;;;;;13.76;100.00;101669.13;5074811;28;20706;-35
2022/10/30 08:45:28;;;;;;;14.60;7.83;;;;;;;13.80;100.00;101659.44;5074479;28;20032;-35
2022/10/30 08:47:59;;;;;;;13.63;7.30;;;;;;;13.84;100.00;101656.03;5074503;28;20115;-35
2022/10/30 08:50:24;;;;;;;14.38;7.82;;;;;;;14.00;100.00;101664.56;5075027;28;20332;-35
2022/10/30 08:52:49;;;;;;;12.07;7.47;;;;;;;14.04;100.00;101672.03;5074629;28;20032;-35
2022/10/30 08:55:15;;;;;;;13.82;7.63;;;;;;;14.12;100.00;101671.69;5074293;28;20495;-35
2022/10/30 08:57:40;;;;;;;13.47;7.97;;;;;;;14.16;100.00;101664.72;5074542;28;20028;-35
2022/10/30 09:00:06;;;;;;;11.80;7.27;;;;;;;14.23;100.00;101669.22;5074012;28;20612;-35
2022/10/30 09:02:32;;;;;;;;;;;;;;;14.34;100.00;101673.81;5074918;28;20282;-35
2022/10/30 09:04:57;;;;;;;12.85;8.55;;;;;;;14.40;100.00;101675.63;5074688;28;19908;-35
2022/10/30 09:07:23;;;;;;;12.98;7.35;;;;;;;14.52;100.00;101668.31;5074713;28;20148;-36
2022/10/30 09:09:48;;;;;;;10.13;7.37;;;;;;;14.66;100.00;101661.56;5055617;28;20051;-35
2022/10/30 09:12:15;;;;;;;18.73;8.18;;;;;;;14.73;100.00;101661.41;5074167;28;20604;-35
2022/10/30 09:14:40;;;;;;;16.05;7.63;;;;;;;14.86;100.00;101655.72;5073499;28;20032;-35
2022/10/30 09:17:05;;;;;;;17.03;7.40;;;;;;;14.97;100.00;101653.22;5073168;28;20051;-35
2022/10/30 09:19:30;;;;;;;;;;;;;;;15.11;100.00;101658.16;5074200;28;20115;-35
2022/10/30 09:21:56;;;;;;;16.20;7.27;;;;;;;15.21;100.00;101633.00;5073788;28;19951;-35
2022/10/30 09:24:21;;;;;;;;;;;;;;;15.36;100.00;101636.03;5074161;28;20111;-35
2022/10/30 09:26:46;;;;;;;15.47;8.13;;;;;;;15.41;100.00;101610.75;5073779;28;19970;-35
2022/10/30 09:29:11;;;;;;;15.33;8.10;;;;;;;15.68;100.00;101638.28;5074208;28;20258;-35
2022/10/30 09:31:37;;;;;;;;;;;;;;;15.80;100.00;101649.13;5073696;28;20025;-35
2022/10/30 09:34:02;;;;;;;11.10;7.30;;;;;;;15.80;100.00;101635.47;5073694;28;20392;-35
2022/10/30 09:36:27;;;;;;;18.92;8.00;;;;;;;15.88;100.00;101643.25;5073414;28;20294;-35
2022/10/30 09:38:54;;;;;;;15.53;7.97;;;;;;;15.91;100.00;101650.97;5073145;28;20390;-35
2022/10/30 09:41:35;;;;;;;14.10;8.25;;;;;;;16.01;100.00;101653.03;5072973;28;20735;-35
2022/10/30 09:44:12;;;;;;;13.85;7.80;;;;;;;16.15;100.00;101654.31;5073701;28;20032;-36
2022/10/30 09:46:47;;;;;;;14.40;8.50;;;;;;;16.29;100.00;101650.19;5073683;28;20051;-35
2022/10/30 09:49:35;;;;;;;13.73;8.48;;;;;;;16.34;100.00;101654.91;5073567;28;20372;-35
2022/10/30 09:52:30;;;;;;;13.20;7.60;;;;;;;16.46;100.00;101663.84;5073150;28;20025;-35
2022/10/30 09:55:14;;;;;;;13.57;7.18;;;;;;;16.40;100.00;101657.47;5072582;28;20128;-35
2022/10/30 09:57:39;;;;;;;16.83;7.32;;;;;;;16.40;99.79;101653.94;5073123;28;20113;-34
2022/10/30 10:00:11;;;;;;;14.40;7.00;;;;;;;16.47;99.59;101687.31;5072830;28;20104;-36
2022/10/30 10:03:03;;;;;;;13.13;6.88;;;;;;;16.41;100.00;101685.59;5073272;28;20461;-35
2022/10/30 10:05:37;;;;;;;14.00;7.28;;;;;;;16.41;99.68;101688.31;5051198;28;20040;-35
2022/10/30 10:08:07;;;;;;;12.43;6.55;;;;;;;16.40;100.00;101683.94;5050900;28;20056;-35
2022/10/30 10:10:56;;;;;;;15.38;7.35;;;;;;;16.43;100.00;101673.34;5050592;28;20039;-35
2022/10/30 10:13:21;;;;;;;13.77;7.28;;;;;;;16.42;100.00;101677.16;5049847;28;20037;-35
2022/10/30 10:15:52;;;;;;;11.87;6.90;;;;;;;16.54;100.00;101677.03;5050761;28;20043;-35
2022/10/30 10:18:24;;;;;;;15.05;7.05;;;;;;;16.63;99.91;101666.53;5050696;28;20251;-35
2022/10/30 10:20:54;;;;;;;9.82;6.72;;;;;;;16.83;98.91;101660.53;5051173;28;20100;-35
2022/10/30 10:23:38;;;;;;;15.90;7.53;;;;;;;16.89;99.40;101659.56;5050762;28;20532;-36
2022/10/30 10:26:19;;;;;;;17.20;7.28;;;;;;;16.92;97.79;101650.84;5050467;28;20389;-35
2022/10/30 10:29:02;;;;;;;13.90;6.35;;;;;;;17.05;97.84;101663.31;5050952;28;20362;-34
2022/10/30 10:32:09;;;;;;;15.85;6.63;;;;;;;17.07;96.44;101655.66;5050588;28;20041;-34
2022/10/30 10:35:11;;;;;;;10.90;6.25;;;;;;;17.17;97.08;101656.59;4991417;28;20534;-35
2022/10/30 10:37:52;;;;;;;14.82;6.68;;;;;;;17.22;95.96;101653.09;4991728;28;20448;-35
2022/10/30 10:40:41;;;;;;;11.48;6.47;;;;;;;17.28;95.46;101651.28;4991886;28;20045;-35
2022/10/30 10:43:28;;;;;;;13.48;5.90;;;;;;;17.32;94.44;101652.41;5006751;28;20046;-35
2022/10/30 10:46:06;;;;;;;;;;;;;;;17.46;97.68;101642.72;5011353;28;20048;-35
2022/10/30 10:48:47;;;;;;;;;;;;;;;17.52;97.28;101644.44;5011474;28;19921;-35
2022/10/30 10:51:26;;;;;;;16.35;6.72;;;;;;;17.53;93.34;101648.00;5011402;28;20345;-35
2022/10/30 10:54:10;;;;;;;12.70;6.20;;;;;;;17.63;92.84;101648.09;5010918;28;20037;-35
2022/10/30 10:56:40;;;;;;;14.85;6.28;;;;;;;17.82;91.64;101656.78;5010834;28;20494;-35
2022/10/30 10:59:20;;;;;;;12.02;6.35;;;;;;;17.89;91.75;101651.91;5010540;28;20061;-36
2022/10/30 11:01:55;;;;;;;12.57;5.63;;;;;;;17.94;90.74;101646.50;5010598;28;20073;-35
2022/10/30 11:04:27;;;;;;;12.48;6.53;;;;;;;17.99;89.75;101647.34;5010471;28;20045;-36
2022/10/30 11:06:54;;;;;;;13.10;5.90;;;;;;;18.04;89.15;101643.84;5010131;28;20188;-35
2022/10/30 11:09:21;;;;;;;14.93;6.05;;;;;;;18.12;89.13;101645.28;5061891;28;20510;-36
2022/10/30 11:11:49;;;;;;;11.50;5.88;;;;;;;18.19;89.11;101640.38;5072019;28;20028;-36
2022/10/30 11:14:17;;;;;;;11.82;5.75;;;;;;;18.31;89.89;101640.22;5072390;28;20027;-36
2022/10/30 11:17:01;;;;;;;15.77;5.72;;;;;;;18.31;90.24;101635.56;5072395;28;20025;-36
2022/10/30 11:19:29;;;;;;;18.10;6.00;;;;;;;18.33;86.82;101619.69;5071957;28;20043;-36